sensor_id;sensor_type;location;lat;lon;timestamp;temperature;humidity
37896;DHT22;23733;53.254;10.430;2022-09-17T00:03:56;11.90;99.90
37896;DHT22;23733;53.254;10.430;2022-09-17T00:06:24;12.00;99.90
37896;DHT22;23733;53.254;10.430;2022-09-17T00:08:51;12.00;99.90
37896;DHT22;23733;53.254;10.430;2022-09-17T00:11:29;11.90;99.90
37896;DHT22;23733;53.254;10.430;2022-09-17T00:16:41;12.00;99.90
37896;DHT22;23733;53.254;10.430;2022-09-17T00:21:46;12.00;99.90
37896;DHT22;23733;53.254;10.430;2022-09-17T00:24:36;12.00;99.90
37896;DHT22;23733;53.254;10.430;2022-09-17T00:27:02;11.90;99.90
37896;DHT22;23733;53.254;10.430;2022-09-17T00:29:28;11.90;99.90
37896;DHT22;23733;53.254;10.430;2022-09-17T00:31:54;11.90;99.90
37896;DHT22;23733;53.254;10.430;2022-09-17T00:34:23;11.90;99.90
37896;DHT22;23733;53.254;10.430;2022-09-17T00:36:52;11.90;99.90
37896;DHT22;23733;53.254;10.430;2022-09-17T00:39:18;11.90;99.90
37896;DHT22;23733;53.254;10.430;2022-09-17T00:41:44;11.90;99.90
37896;DHT22;23733;53.254;10.430;2022-09-17T00:47:15;11.90;99.90
37896;DHT22;23733;53.254;10.430;2022-09-17T00:49:42;11.90;99.90
37896;DHT22;23733;53.254;10.430;2022-09-17T00:52:33;11.90;99.90
37896;DHT22;23733;53.254;10.430;2022-09-17T00:57:51;11.90;99.90
37896;DHT22;23733;53.254;10.430;2022-09-17T01:00:21;11.90;99.90
37896;DHT22;23733;53.254;10.430;2022-09-17T01:02:48;11.90;99.90
37896;DHT22;23733;53.254;10.430;2022-09-17T01:05:15;11.90;99.90
37896;DHT22;23733;53.254;10.430;2022-09-17T01:08:00;11.90;99.90
37896;DHT22;23733;53.254;10.430;2022-09-17T01:10:44;11.90;99.90
37896;DHT22;23733;53.254;10.430;2022-09-17T01:13:36;11.90;99.90
37896;DHT22;23733;53.254;10.430;2022-09-17T01:16:22;11.90;99.90
37896;DHT22;23733;53.254;10.430;2022-09-17T01:27:21;11.80;99.90
37896;DHT22;23733;53.254;10.430;2022-09-17T01:33:14;11.80;99.90
37896;DHT22;23733;53.254;10.430;2022-09-17T01:35:48;11.80;99.90
37896;DHT22;23733;53.254;10.430;2022-09-17T01:38:25;11.80;99.90
37896;DHT22;23733;53.254;10.430;2022-09-17T01:43:42;11.80;99.90
37896;DHT22;23733;53.254;10.430;2022-09-17T01:46:19;11.80;99.90
37896;DHT22;23733;53.254;10.430;2022-09-17T01:48:55;11.70;99.90
37896;DHT22;23733;53.254;10.430;2022-09-17T01:51:25;11.70;99.90
37896;DHT22;23733;53.254;10.430;2022-09-17T01:54:05;11.70;99.90
37896;DHT22;23733;53.254;10.430;2022-09-17T01:56:51;11.70;99.90
37896;DHT22;23733;53.254;10.430;2022-09-17T01:59:36;11.70;99.90
37896;DHT22;23733;53.254;10.430;2022-09-17T02:02:10;11.70;99.90
37896;DHT22;23733;53.254;10.430;2022-09-17T02:04:44;11.60;99.90
37896;DHT22;23733;53.254;10.430;2022-09-17T02:07:16;11.60;99.90
37896;DHT22;23733;53.254;10.430;2022-09-17T02:09:56;11.60;99.90
37896;DHT22;23733;53.254;10.430;2022-09-17T02:15:26;11.60;99.90
37896;DHT22;23733;53.254;10.430;2022-09-17T02:20:45;11.50;99.90
37896;DHT22;23733;53.254;10.430;2022-09-17T02:23:30;11.50;99.90
37896;DHT22;23733;53.254;10.430;2022-09-17T02:26:05;11.50;99.90
37896;DHT22;23733;53.254;10.430;2022-09-17T02:28:41;11.40;99.90
37896;DHT22;23733;53.254;10.430;2022-09-17T02:31:09;11.50;99.90
37896;DHT22;23733;53.254;10.430;2022-09-17T02:33:45;11.50;99.90
37896;DHT22;23733;53.254;10.430;2022-09-17T02:36:15;11.50;99.90
37896;DHT22;23733;53.254;10.430;2022-09-17T02:38:59;11.40;99.90
37896;DHT22;23733;53.254;10.430;2022-09-17T02:47:03;11.40;99.90
37896;DHT22;23733;53.254;10.430;2022-09-17T02:50:00;11.40;99.90
37896;DHT22;23733;53.254;10.430;2022-09-17T02:52:54;11.30;99.90
37896;DHT22;23733;53.254;10.430;2022-09-17T03:01:32;11.30;99.90
37896;DHT22;23733;53.254;10.430;2022-09-17T03:04:07;11.20;99.90
37896;DHT22;23733;53.254;10.430;2022-09-17T03:06:34;11.30;99.90
37896;DHT22;23733;53.254;10.430;2022-09-17T03:09:04;11.30;99.90
37896;DHT22;23733;53.254;10.430;2022-09-17T03:11:36;11.20;99.90
37896;DHT22;23733;53.254;10.430;2022-09-17T03:14:02;11.30;99.90
37896;DHT22;23733;53.254;10.430;2022-09-17T03:16:31;11.30;99.90
37896;DHT22;23733;53.254;10.430;2022-09-17T03:18:57;11.20;99.90
37896;DHT22;23733;53.254;10.430;2022-09-17T03:21:23;11.20;99.90
37896;DHT22;23733;53.254;10.430;2022-09-17T03:23:51;11.30;99.90
37896;DHT22;23733;53.254;10.430;2022-09-17T03:26:18;11.30;99.90
37896;DHT22;23733;53.254;10.430;2022-09-17T03:28:44;11.20;99.90
37896;DHT22;23733;53.254;10.430;2022-09-17T03:31:10;11.30;99.90
37896;DHT22;23733;53.254;10.430;2022-09-17T03:33:36;11.20;99.90
37896;DHT22;23733;53.254;10.430;2022-09-17T03:36:02;11.20;99.90
37896;DHT22;23733;53.254;10.430;2022-09-17T03:38:30;11.20;99.90
37896;DHT22;23733;53.254;10.430;2022-09-17T03:41:04;11.20;99.90
37896;DHT22;23733;53.254;10.430;2022-09-17T03:43:32;11.20;99.90
37896;DHT22;23733;53.254;10.430;2022-09-17T03:46:01;11.20;99.90
37896;DHT22;23733;53.254;10.430;2022-09-17T03:48:30;11.20;99.90
37896;DHT22;23733;53.254;10.430;2022-09-17T03:50:59;11.20;99.90
37896;DHT22;23733;53.254;10.430;2022-09-17T03:53:26;11.20;99.90
37896;DHT22;23733;53.254;10.430;2022-09-17T03:55:57;11.20;99.90
37896;DHT22;23733;53.254;10.430;2022-09-17T03:58:46;11.20;99.90
37896;DHT22;23733;53.254;10.430;2022-09-17T04:01:12;11.20;99.90
37896;DHT22;23733;53.254;10.430;2022-09-17T04:03:41;11.20;99.90
37896;DHT22;23733;53.254;10.430;2022-09-17T04:06:07;11.20;99.90
37896;DHT22;23733;53.254;10.430;2022-09-17T04:08:33;11.20;99.90
37896;DHT22;23733;53.254;10.430;2022-09-17T04:10:59;11.20;99.90
37896;DHT22;23733;53.254;10.430;2022-09-17T04:13:25;11.20;99.90
37896;DHT22;23733;53.254;10.430;2022-09-17T04:15:51;11.20;99.90
37896;DHT22;23733;53.254;10.430;2022-09-17T04:18:17;11.10;99.90
37896;DHT22;23733;53.254;10.430;2022-09-17T04:20:43;11.20;99.90
37896;DHT22;23733;53.254;10.430;2022-09-17T04:23:12;11.10;99.90
37896;DHT22;23733;53.254;10.430;2022-09-17T04:25:38;11.20;99.90
37896;DHT22;23733;53.254;10.430;2022-09-17T04:28:06;11.20;99.90
37896;DHT22;23733;53.254;10.430;2022-09-17T04:30:37;11.20;99.90
37896;DHT22;23733;53.254;10.430;2022-09-17T04:33:04;11.20;99.90
37896;DHT22;23733;53.254;10.430;2022-09-17T04:35:30;11.20;99.90
37896;DHT22;23733;53.254;10.430;2022-09-17T04:37:56;11.10;99.90
37896;DHT22;23733;53.254;10.430;2022-09-17T04:40:24;11.20;99.90
37896;DHT22;23733;53.254;10.430;2022-09-17T04:42:54;11.20;99.90
37896;DHT22;23733;53.254;10.430;2022-09-17T04:45:21;11.20;99.90
37896;DHT22;23733;53.254;10.430;2022-09-17T04:47:47;11.10;99.90
37896;DHT22;23733;53.254;10.430;2022-09-17T04:50:19;11.10;99.90
37896;DHT22;23733;53.254;10.430;2022-09-17T04:52:48;11.20;99.90
37896;DHT22;23733;53.254;10.430;2022-09-17T04:55:15;11.10;99.90
37896;DHT22;23733;53.254;10.430;2022-09-17T04:57:47;11.10;99.90
37896;DHT22;23733;53.254;10.430;2022-09-17T05:00:15;11.10;99.90
37896;DHT22;23733;53.254;10.430;2022-09-17T05:02:47;11.10;99.90
37896;DHT22;23733;53.254;10.430;2022-09-17T05:05:20;11.10;99.90
37896;DHT22;23733;53.254;10.430;2022-09-17T05:07:48;11.10;99.90
37896;DHT22;23733;53.254;10.430;2022-09-17T05:10:16;11.10;99.90
37896;DHT22;23733;53.254;10.430;2022-09-17T05:12:50;11.10;99.90
37896;DHT22;23733;53.254;10.430;2022-09-17T05:15:17;11.10;99.90
37896;DHT22;23733;53.254;10.430;2022-09-17T05:17:43;11.00;99.90
37896;DHT22;23733;53.254;10.430;2022-09-17T05:20:10;11.00;99.90
37896;DHT22;23733;53.254;10.430;2022-09-17T05:22:41;11.00;99.90
37896;DHT22;23733;53.254;10.430;2022-09-17T05:25:14;11.00;99.90
37896;DHT22;23733;53.254;10.430;2022-09-17T05:27:44;11.00;99.90
37896;DHT22;23733;53.254;10.430;2022-09-17T05:30:13;11.00;99.90
37896;DHT22;23733;53.254;10.430;2022-09-17T05:32:54;11.00;99.90
37896;DHT22;23733;53.254;10.430;2022-09-17T05:35:22;11.00;99.90
37896;DHT22;23733;53.254;10.430;2022-09-17T05:38:06;11.00;99.90
37896;DHT22;23733;53.254;10.430;2022-09-17T05:40:41;11.00;99.90
37896;DHT22;23733;53.254;10.430;2022-09-17T05:43:17;10.90;99.90
37896;DHT22;23733;53.254;10.430;2022-09-17T05:45:43;10.90;99.90
37896;DHT22;23733;53.254;10.430;2022-09-17T05:48:15;10.90;99.90
37896;DHT22;23733;53.254;10.430;2022-09-17T05:50:49;10.90;99.90
37896;DHT22;23733;53.254;10.430;2022-09-17T05:53:15;10.90;99.90
37896;DHT22;23733;53.254;10.430;2022-09-17T05:58:31;10.90;99.90
37896;DHT22;23733;53.254;10.430;2022-09-17T06:01:01;10.90;99.90
37896;DHT22;23733;53.254;10.430;2022-09-17T06:03:27;10.90;99.90
37896;DHT22;23733;53.254;10.430;2022-09-17T06:05:55;10.90;99.90
37896;DHT22;23733;53.254;10.430;2022-09-17T06:08:24;10.90;99.90
37896;DHT22;23733;53.254;10.430;2022-09-17T06:10:50;10.90;99.90
37896;DHT22;23733;53.254;10.430;2022-09-17T06:13:17;10.90;99.90
37896;DHT22;23733;53.254;10.430;2022-09-17T06:15:51;10.80;99.90
37896;DHT22;23733;53.254;10.430;2022-09-17T06:18:18;10.90;99.90
37896;DHT22;23733;53.254;10.430;2022-09-17T06:20:55;10.90;99.90
37896;DHT22;23733;53.254;10.430;2022-09-17T06:23:21;10.90;99.90
37896;DHT22;23733;53.254;10.430;2022-09-17T06:25:56;10.90;99.90
37896;DHT22;23733;53.254;10.430;2022-09-17T06:28:23;10.90;99.90
37896;DHT22;23733;53.254;10.430;2022-09-17T06:30:52;10.90;99.90
37896;DHT22;23733;53.254;10.430;2022-09-17T06:33:21;10.80;99.90
37896;DHT22;23733;53.254;10.430;2022-09-17T06:35:47;10.80;99.90
37896;DHT22;23733;53.254;10.430;2022-09-17T06:38:14;10.90;99.90
37896;DHT22;23733;53.254;10.430;2022-09-17T06:40:40;10.90;99.90
37896;DHT22;23733;53.254;10.430;2022-09-17T06:43:06;10.90;99.90
37896;DHT22;23733;53.254;10.430;2022-09-17T06:45:35;10.90;99.90
37896;DHT22;23733;53.254;10.430;2022-09-17T06:48:04;10.90;99.90
37896;DHT22;23733;53.254;10.430;2022-09-17T06:50:33;10.90;99.90
37896;DHT22;23733;53.254;10.430;2022-09-17T06:53:01;11.00;99.90
37896;DHT22;23733;53.254;10.430;2022-09-17T06:55:27;10.90;99.90
37896;DHT22;23733;53.254;10.430;2022-09-17T06:57:57;11.00;99.90
37896;DHT22;23733;53.254;10.430;2022-09-17T07:00:23;11.00;99.90
37896;DHT22;23733;53.254;10.430;2022-09-17T07:02:57;11.00;99.90
37896;DHT22;23733;53.254;10.430;2022-09-17T07:05:24;11.00;99.90
37896;DHT22;23733;53.254;10.430;2022-09-17T07:07:51;11.00;99.90
37896;DHT22;23733;53.254;10.430;2022-09-17T07:10:23;11.00;99.90
37896;DHT22;23733;53.254;10.430;2022-09-17T07:12:51;11.10;99.90
37896;DHT22;23733;53.254;10.430;2022-09-17T07:15:18;11.10;99.90
37896;DHT22;23733;53.254;10.430;2022-09-17T07:17:44;11.20;99.90
37896;DHT22;23733;53.254;10.430;2022-09-17T07:20:11;11.20;99.90
37896;DHT22;23733;53.254;10.430;2022-09-17T07:22:45;11.30;99.90
37896;DHT22;23733;53.254;10.430;2022-09-17T07:25:28;11.30;99.90
37896;DHT22;23733;53.254;10.430;2022-09-17T07:28:01;11.40;99.90
37896;DHT22;23733;53.254;10.430;2022-09-17T07:30:36;11.40;99.90
37896;DHT22;23733;53.254;10.430;2022-09-17T07:33:05;11.40;99.90
37896;DHT22;23733;53.254;10.430;2022-09-17T07:35:34;11.40;99.90
37896;DHT22;23733;53.254;10.430;2022-09-17T07:38:08;11.50;99.90
37896;DHT22;23733;53.254;10.430;2022-09-17T07:40:37;11.50;99.90
37896;DHT22;23733;53.254;10.430;2022-09-17T07:43:03;11.60;99.90
37896;DHT22;23733;53.254;10.430;2022-09-17T07:45:29;11.60;99.90
37896;DHT22;23733;53.254;10.430;2022-09-17T07:47:58;11.70;99.90
37896;DHT22;23733;53.254;10.430;2022-09-17T07:50:24;11.80;99.90
37896;DHT22;23733;53.254;10.430;2022-09-17T07:52:57;11.80;99.90
37896;DHT22;23733;53.254;10.430;2022-09-17T07:55:23;11.80;99.90
37896;DHT22;23733;53.254;10.430;2022-09-17T07:57:52;11.90;99.90
37896;DHT22;23733;53.254;10.430;2022-09-17T08:00:24;11.90;99.90
37896;DHT22;23733;53.254;10.430;2022-09-17T08:03:00;12.00;99.90
37896;DHT22;23733;53.254;10.430;2022-09-17T08:09:35;12.00;99.90
37896;DHT22;23733;53.254;10.430;2022-09-17T08:15:33;12.00;99.90
37896;DHT22;23733;53.254;10.430;2022-09-17T08:27:54;12.20;99.90
37896;DHT22;23733;53.254;10.430;2022-09-17T08:30:40;12.10;99.90
37896;DHT22;23733;53.254;10.430;2022-09-17T08:33:24;12.10;99.90
37896;DHT22;23733;53.254;10.430;2022-09-17T08:36:19;12.10;99.90
37896;DHT22;23733;53.254;10.430;2022-09-17T08:39:14;12.10;99.90
37896;DHT22;23733;53.254;10.430;2022-09-17T08:52:28;12.50;99.90
37896;DHT22;23733;53.254;10.430;2022-09-17T09:00:47;12.70;99.90
37896;DHT22;23733;53.254;10.430;2022-09-17T09:07:01;12.80;99.90
37896;DHT22;23733;53.254;10.430;2022-09-17T09:12:30;12.90;99.90
37896;DHT22;23733;53.254;10.430;2022-09-17T09:18:30;12.60;99.90
37896;DHT22;23733;53.254;10.430;2022-09-17T09:24:08;12.50;99.90
37896;DHT22;23733;53.254;10.430;2022-09-17T09:29:21;12.70;99.90
37896;DHT22;23733;53.254;10.430;2022-09-17T09:32:07;12.80;99.90
37896;DHT22;23733;53.254;10.430;2022-09-17T09:34:37;12.90;99.90
37896;DHT22;23733;53.254;10.430;2022-09-17T09:37:34;13.00;99.90
37896;DHT22;23733;53.254;10.430;2022-09-17T09:40:32;13.10;99.90
37896;DHT22;23733;53.254;10.430;2022-09-17T09:52:19;13.30;99.90
37896;DHT22;23733;53.254;10.430;2022-09-17T09:57:49;13.30;99.90
37896;DHT22;23733;53.254;10.430;2022-09-17T10:00:35;13.30;99.90
37896;DHT22;23733;53.254;10.430;2022-09-17T10:05:58;13.40;99.90
37896;DHT22;23733;53.254;10.430;2022-09-17T10:08:28;13.40;99.90
37896;DHT22;23733;53.254;10.430;2022-09-17T10:13:31;13.50;99.90
37896;DHT22;23733;53.254;10.430;2022-09-17T10:52:49;13.50;99.90
37896;DHT22;23733;53.254;10.430;2022-09-17T10:58:21;13.50;99.90
37896;DHT22;23733;53.254;10.430;2022-09-17T11:10:06;13.50;99.90
37896;DHT22;23733;53.254;10.430;2022-09-17T11:12:50;13.40;99.90
37896;DHT22;23733;53.254;10.430;2022-09-17T11:15:43;13.50;99.90
37896;DHT22;23733;53.254;10.430;2022-09-17T11:35:48;13.50;99.90
37896;DHT22;23733;53.254;10.430;2022-09-17T11:41:14;13.50;99.90
37896;DHT22;23733;53.254;10.430;2022-09-17T11:43:58;13.50;99.90
37896;DHT22;23733;53.254;10.430;2022-09-17T11:46:33;13.40;99.90
37896;DHT22;23733;53.254;10.430;2022-09-17T11:49:32;13.20;99.90
37896;DHT22;23733;53.254;10.430;2022-09-17T11:52:07;13.20;99.90
37896;DHT22;23733;53.254;10.430;2022-09-17T11:54:52;13.00;99.90
37896;DHT22;23733;53.254;10.430;2022-09-17T11:57:24;12.90;99.90
37896;DHT22;23733;53.254;10.430;2022-09-17T12:05:56;12.60;99.90
37896;DHT22;23733;53.254;10.430;2022-09-17T12:11:40;12.60;99.90
37896;DHT22;23733;53.254;10.430;2022-09-17T12:14:19;12.70;99.90
37896;DHT22;23733;53.254;10.430;2022-09-17T12:16:58;12.70;99.90
37896;DHT22;23733;53.254;10.430;2022-09-17T12:22:18;12.80;99.90
37896;DHT22;23733;53.254;10.430;2022-09-17T12:24:49;12.80;99.90
37896;DHT22;23733;53.254;10.430;2022-09-17T12:27:37;12.70;99.90
37896;DHT22;23733;53.254;10.430;2022-09-17T12:30:21;12.60;99.90
37896;DHT22;23733;53.254;10.430;2022-09-17T12:45:07;12.70;99.90
37896;DHT22;23733;53.254;10.430;2022-09-17T12:48:07;12.80;99.90
37896;DHT22;23733;53.254;10.430;2022-09-17T12:53:42;12.80;99.90
37896;DHT22;23733;53.254;10.430;2022-09-17T12:59:09;12.80;99.90
37896;DHT22;23733;53.254;10.430;2022-09-17T13:02:00;12.80;99.90
37896;DHT22;23733;53.254;10.430;2022-09-17T13:13:57;12.60;99.90
37896;DHT22;23733;53.254;10.430;2022-09-17T13:19:53;12.70;99.90
37896;DHT22;23733;53.254;10.430;2022-09-17T13:22:03;12.60;99.90
37896;DHT22;23733;53.254;10.430;2022-09-17T13:24:35;12.60;99.90
37896;DHT22;23733;53.254;10.430;2022-09-17T13:29:57;12.70;99.90
37896;DHT22;23733;53.254;10.430;2022-09-17T13:37:39;12.60;99.90
37896;DHT22;23733;53.254;10.430;2022-09-17T13:48:20;12.80;99.90
37896;DHT22;23733;53.254;10.430;2022-09-17T13:50:49;12.80;99.90
37896;DHT22;23733;53.254;10.430;2022-09-17T13:53:18;12.90;99.90
37896;DHT22;23733;53.254;10.430;2022-09-17T13:55:59;13.00;99.90
37896;DHT22;23733;53.254;10.430;2022-09-17T13:58:41;13.00;99.90
37896;DHT22;23733;53.254;10.430;2022-09-17T14:01:13;13.00;99.90
37896;DHT22;23733;53.254;10.430;2022-09-17T14:04:02;13.10;99.90
37896;DHT22;23733;53.254;10.430;2022-09-17T14:09:31;13.20;99.90
37896;DHT22;23733;53.254;10.430;2022-09-17T14:12:00;13.30;99.90
37896;DHT22;23733;53.254;10.430;2022-09-17T14:14:49;13.30;99.90
37896;DHT22;23733;53.254;10.430;2022-09-17T14:17:48;13.30;99.90
37896;DHT22;23733;53.254;10.430;2022-09-17T14:20:34;13.40;99.90
37896;DHT22;23733;53.254;10.430;2022-09-17T14:23:09;13.50;99.90
37896;DHT22;23733;53.254;10.430;2022-09-17T14:25:46;13.60;99.90
37896;DHT22;23733;53.254;10.430;2022-09-17T14:31:34;13.60;99.90
37896;DHT22;23733;53.254;10.430;2022-09-17T14:34:04;13.70;99.90
37896;DHT22;23733;53.254;10.430;2022-09-17T14:36:34;13.60;99.90
37896;DHT22;23733;53.254;10.430;2022-09-17T14:39:12;13.50;99.90
37896;DHT22;23733;53.254;10.430;2022-09-17T14:41:42;13.40;99.90
37896;DHT22;23733;53.254;10.430;2022-09-17T14:44:18;13.40;99.90
37896;DHT22;23733;53.254;10.430;2022-09-17T14:46:53;13.40;99.90
37896;DHT22;23733;53.254;10.430;2022-09-17T14:49:26;13.30;99.90
37896;DHT22;23733;53.254;10.430;2022-09-17T14:52:25;13.30;99.90
37896;DHT22;23733;53.254;10.430;2022-09-17T14:55:20;13.30;99.90
37896;DHT22;23733;53.254;10.430;2022-09-17T14:58:36;13.30;99.90
37896;DHT22;23733;53.254;10.430;2022-09-17T15:00:37;13.30;99.90
37896;DHT22;23733;53.254;10.430;2022-09-17T15:03:25;13.30;99.90
37896;DHT22;23733;53.254;10.430;2022-09-17T15:05:54;13.40;99.90
37896;DHT22;23733;53.254;10.430;2022-09-17T15:08:32;13.40;99.90
37896;DHT22;23733;53.254;10.430;2022-09-17T15:11:16;13.50;99.90
37896;DHT22;23733;53.254;10.430;2022-09-17T15:13:54;13.50;99.90
37896;DHT22;23733;53.254;10.430;2022-09-17T15:16:26;13.50;99.90
37896;DHT22;23733;53.254;10.430;2022-09-17T15:19:26;13.40;99.90
37896;DHT22;23733;53.254;10.430;2022-09-17T15:22:30;13.50;99.90
37896;DHT22;23733;53.254;10.430;2022-09-17T15:25:01;13.40;99.90
37896;DHT22;23733;53.254;10.430;2022-09-17T15:30:30;13.40;99.90
37896;DHT22;23733;53.254;10.430;2022-09-17T15:33:01;13.40;99.90
37896;DHT22;23733;53.254;10.430;2022-09-17T15:35:35;13.40;99.90
37896;DHT22;23733;53.254;10.430;2022-09-17T15:38:25;13.40;99.90
37896;DHT22;23733;53.254;10.430;2022-09-17T15:40:55;13.30;99.90
37896;DHT22;23733;53.254;10.430;2022-09-17T15:43:38;13.20;99.90
37896;DHT22;23733;53.254;10.430;2022-09-17T15:46:26;13.10;99.90
37896;DHT22;23733;53.254;10.430;2022-09-17T15:48:53;13.20;99.90
37896;DHT22;23733;53.254;10.430;2022-09-17T15:51:31;13.10;99.90
37896;DHT22;23733;53.254;10.430;2022-09-17T15:54:00;13.10;99.90
37896;DHT22;23733;53.254;10.430;2022-09-17T15:56:30;13.20;99.90
37896;DHT22;23733;53.254;10.430;2022-09-17T16:08:58;13.10;99.90
37896;DHT22;23733;53.254;10.430;2022-09-17T16:11:30;13.00;99.90
37896;DHT22;23733;53.254;10.430;2022-09-17T16:13:58;12.90;99.90
37896;DHT22;23733;53.254;10.430;2022-09-17T16:16:34;12.90;99.90
37896;DHT22;23733;53.254;10.430;2022-09-17T16:19:04;12.80;99.90
37896;DHT22;23733;53.254;10.430;2022-09-17T16:21:31;12.80;99.90
37896;DHT22;23733;53.254;10.430;2022-09-17T16:23:57;12.80;99.90
37896;DHT22;23733;53.254;10.430;2022-09-17T16:26:28;12.80;99.90
37896;DHT22;23733;53.254;10.430;2022-09-17T16:28:58;12.70;99.90
37896;DHT22;23733;53.254;10.430;2022-09-17T16:31:27;12.70;99.90
37896;DHT22;23733;53.254;10.430;2022-09-17T16:33:53;12.70;99.90
37896;DHT22;23733;53.254;10.430;2022-09-17T16:36:20;12.70;99.90
37896;DHT22;23733;53.254;10.430;2022-09-17T16:38:46;12.60;99.90
37896;DHT22;23733;53.254;10.430;2022-09-17T16:41:15;12.60;99.90
37896;DHT22;23733;53.254;10.430;2022-09-17T16:43:41;12.60;99.90
37896;DHT22;23733;53.254;10.430;2022-09-17T16:46:08;12.60;99.90
37896;DHT22;23733;53.254;10.430;2022-09-17T16:48:38;12.70;99.90
37896;DHT22;23733;53.254;10.430;2022-09-17T16:51:12;12.70;99.90
37896;DHT22;23733;53.254;10.430;2022-09-17T16:53:39;12.70;99.90
37896;DHT22;23733;53.254;10.430;2022-09-17T16:56:10;12.70;99.90
37896;DHT22;23733;53.254;10.430;2022-09-17T16:58:36;12.70;99.90
37896;DHT22;23733;53.254;10.430;2022-09-17T17:01:11;12.80;99.90
37896;DHT22;23733;53.254;10.430;2022-09-17T17:03:38;12.70;99.90
37896;DHT22;23733;53.254;10.430;2022-09-17T17:06:04;12.80;99.90
37896;DHT22;23733;53.254;10.430;2022-09-17T17:08:33;12.80;99.90
37896;DHT22;23733;53.254;10.430;2022-09-17T17:10:59;12.70;99.90
37896;DHT22;23733;53.254;10.430;2022-09-17T17:13:25;12.70;99.90
37896;DHT22;23733;53.254;10.430;2022-09-17T17:15:52;12.70;99.90
37896;DHT22;23733;53.254;10.430;2022-09-17T17:18:27;12.70;99.90
37896;DHT22;23733;53.254;10.430;2022-09-17T17:20:53;12.60;99.90
37896;DHT22;23733;53.254;10.430;2022-09-17T17:23:19;12.60;99.90
37896;DHT22;23733;53.254;10.430;2022-09-17T17:25:45;12.60;99.90
37896;DHT22;23733;53.254;10.430;2022-09-17T17:28:14;12.60;99.90
37896;DHT22;23733;53.254;10.430;2022-09-17T17:30:40;12.60;99.90
37896;DHT22;23733;53.254;10.430;2022-09-17T17:33:06;12.60;99.90
37896;DHT22;23733;53.254;10.430;2022-09-17T17:35:32;12.60;99.90
37896;DHT22;23733;53.254;10.430;2022-09-17T17:37:58;12.50;99.90
37896;DHT22;23733;53.254;10.430;2022-09-17T17:40:32;12.50;99.90
37896;DHT22;23733;53.254;10.430;2022-09-17T17:42:58;12.50;99.90
37896;DHT22;23733;53.254;10.430;2022-09-17T17:45:24;12.50;99.90
37896;DHT22;23733;53.254;10.430;2022-09-17T17:47:51;12.50;99.90
37896;DHT22;23733;53.254;10.430;2022-09-17T17:50:17;12.50;99.90
37896;DHT22;23733;53.254;10.430;2022-09-17T17:52:44;12.40;99.90
37896;DHT22;23733;53.254;10.430;2022-09-17T17:55:13;12.40;99.90
37896;DHT22;23733;53.254;10.430;2022-09-17T17:57:39;12.40;99.90
37896;DHT22;23733;53.254;10.430;2022-09-17T18:00:06;12.40;99.90
37896;DHT22;23733;53.254;10.430;2022-09-17T18:02:32;12.40;99.90
37896;DHT22;23733;53.254;10.430;2022-09-17T18:05:01;12.40;99.90
37896;DHT22;23733;53.254;10.430;2022-09-17T18:07:28;12.30;99.90
37896;DHT22;23733;53.254;10.430;2022-09-17T18:09:54;12.30;99.90
37896;DHT22;23733;53.254;10.430;2022-09-17T18:12:20;12.20;99.90
37896;DHT22;23733;53.254;10.430;2022-09-17T18:14:46;12.20;99.90
37896;DHT22;23733;53.254;10.430;2022-09-17T18:17:12;12.10;99.90
37896;DHT22;23733;53.254;10.430;2022-09-17T18:19:38;12.10;99.90
37896;DHT22;23733;53.254;10.430;2022-09-17T18:22:04;12.20;99.90
37896;DHT22;23733;53.254;10.430;2022-09-17T18:24:30;12.20;99.90
37896;DHT22;23733;53.254;10.430;2022-09-17T18:27:05;12.20;99.90
37896;DHT22;23733;53.254;10.430;2022-09-17T18:29:40;12.30;99.90
37896;DHT22;23733;53.254;10.430;2022-09-17T18:32:09;12.30;99.90
37896;DHT22;23733;53.254;10.430;2022-09-17T18:34:38;12.30;99.90
37896;DHT22;23733;53.254;10.430;2022-09-17T18:37:05;12.30;99.90
37896;DHT22;23733;53.254;10.430;2022-09-17T18:39:31;12.30;99.90
37896;DHT22;23733;53.254;10.430;2022-09-17T18:41:57;12.30;99.90
37896;DHT22;23733;53.254;10.430;2022-09-17T18:44:23;12.30;99.90
37896;DHT22;23733;53.254;10.430;2022-09-17T18:46:49;12.30;99.90
37896;DHT22;23733;53.254;10.430;2022-09-17T18:49:16;12.30;99.90
37896;DHT22;23733;53.254;10.430;2022-09-17T18:51:42;12.20;99.90
37896;DHT22;23733;53.254;10.430;2022-09-17T18:54:11;12.20;99.90
37896;DHT22;23733;53.254;10.430;2022-09-17T18:56:43;12.30;99.90
37896;DHT22;23733;53.254;10.430;2022-09-17T18:59:12;12.20;99.90
37896;DHT22;23733;53.254;10.430;2022-09-17T19:01:38;12.20;99.90
37896;DHT22;23733;53.254;10.430;2022-09-17T19:04:04;12.20;99.90
37896;DHT22;23733;53.254;10.430;2022-09-17T19:06:32;12.10;99.90
37896;DHT22;23733;53.254;10.430;2022-09-17T19:08:59;12.10;99.90
37896;DHT22;23733;53.254;10.430;2022-09-17T19:11:31;12.10;99.90
37896;DHT22;23733;53.254;10.430;2022-09-17T19:14:14;12.10;99.90
37896;DHT22;23733;53.254;10.430;2022-09-17T19:16:43;12.20;99.90
37896;DHT22;23733;53.254;10.430;2022-09-17T19:19:09;12.10;99.90
37896;DHT22;23733;53.254;10.430;2022-09-17T19:21:39;12.20;99.90
37896;DHT22;23733;53.254;10.430;2022-09-17T19:24:05;12.10;99.90
37896;DHT22;23733;53.254;10.430;2022-09-17T19:26:31;12.10;99.90
37896;DHT22;23733;53.254;10.430;2022-09-17T19:28:58;12.10;99.90
37896;DHT22;23733;53.254;10.430;2022-09-17T19:31:25;12.10;99.90
37896;DHT22;23733;53.254;10.430;2022-09-17T19:33:51;12.10;99.90
37896;DHT22;23733;53.254;10.430;2022-09-17T19:36:20;12.10;99.90
37896;DHT22;23733;53.254;10.430;2022-09-17T19:38:47;12.10;99.90
37896;DHT22;23733;53.254;10.430;2022-09-17T19:41:15;12.10;99.90
37896;DHT22;23733;53.254;10.430;2022-09-17T19:43:45;12.10;99.90
37896;DHT22;23733;53.254;10.430;2022-09-17T19:46:16;12.10;99.90
37896;DHT22;23733;53.254;10.430;2022-09-17T19:48:47;12.10;99.90
37896;DHT22;23733;53.254;10.430;2022-09-17T19:51:23;12.10;99.90
37896;DHT22;23733;53.254;10.430;2022-09-17T19:53:50;12.10;99.90
37896;DHT22;23733;53.254;10.430;2022-09-17T19:56:19;12.10;99.90
37896;DHT22;23733;53.254;10.430;2022-09-17T19:58:46;12.10;99.90
37896;DHT22;23733;53.254;10.430;2022-09-17T20:01:18;12.10;99.90
37896;DHT22;23733;53.254;10.430;2022-09-17T20:03:47;12.10;99.90
37896;DHT22;23733;53.254;10.430;2022-09-17T20:08:49;12.10;99.90
37896;DHT22;23733;53.254;10.430;2022-09-17T20:11:17;12.00;99.90